createdAt,value
2023-02-25T00:01:13.331Z,9.55
2023-02-25T00:03:44.433Z,9.93
2023-02-25T00:06:36.426Z,10.48
2023-02-25T00:09:07.736Z,9.98
2023-02-25T00:11:43.620Z,9.88
2023-02-25T00:14:14.015Z,10.38
2023-02-25T00:16:42.858Z,10.48
2023-02-25T00:19:18.084Z,10.45
2023-02-25T00:21:45.726Z,10.55
2023-02-25T00:24:18.806Z,9.77
2023-02-25T00:26:46.249Z,9.88
2023-02-25T00:29:19.576Z,9.70
2023-02-25T00:31:47.133Z,10.55
2023-02-25T00:34:18.443Z,10.75
2023-02-25T00:36:53.194Z,9.63
2023-02-25T00:39:42.233Z,9.18
2023-02-25T00:42:13.048Z,9.30
2023-02-25T00:44:50.223Z,9.60
2023-02-25T00:47:22.451Z,9.15
2023-02-25T00:49:49.915Z,8.10
2023-02-25T00:52:42.605Z,9.05
2023-02-25T00:55:13.928Z,9.02
2023-02-25T00:57:50.015Z,8.57
2023-02-25T01:00:19.902Z,8.48
2023-02-25T01:02:49.935Z,8.98
2023-02-25T01:05:23.370Z,8.55
2023-02-25T01:08:00.290Z,9.10
2023-02-25T01:10:33.195Z,7.80
2023-02-25T01:13:08.019Z,9.35
2023-02-25T01:15:46.015Z,8.65
2023-02-25T01:18:31.458Z,8.82
2023-02-25T01:20:59.007Z,8.88
2023-02-25T01:23:30.579Z,8.18
2023-02-25T01:26:00.664Z,8.15
2023-02-25T01:28:37.439Z,8.00
2023-02-25T01:31:05.185Z,7.65
2023-02-25T01:33:38.850Z,8.20
2023-02-25T01:36:06.910Z,8.60
2023-02-25T01:38:34.646Z,8.48
2023-02-25T01:41:05.303Z,8.52
2023-02-25T01:43:39.847Z,7.60
2023-02-25T01:46:14.487Z,8.40
2023-02-25T01:48:49.814Z,8.10
2023-02-25T01:51:28.039Z,8.73
2023-02-25T01:54:23.055Z,8.80
2023-02-25T01:56:54.825Z,8.52
2023-02-25T01:59:30.926Z,8.15
2023-02-25T02:02:05.047Z,8.85
2023-02-25T02:04:41.306Z,7.60
2023-02-25T02:07:14.849Z,8.32
2023-02-25T02:09:56.168Z,19.65
2023-02-25T02:12:44.894Z,8.80
2023-02-25T02:15:15.960Z,8.57
2023-02-25T02:18:03.523Z,8.27
2023-02-25T02:21:08.902Z,8.00
2023-02-25T02:26:39.762Z,7.28
2023-02-25T02:29:28.686Z,7.88
2023-02-25T02:32:20.415Z,7.22
2023-02-25T02:35:20.074Z,7.15
2023-02-25T02:38:15.316Z,7.28
2023-02-25T02:41:18.025Z,7.13
2023-02-25T02:44:02.021Z,7.55
2023-02-25T02:46:41.201Z,7.38
2023-02-25T02:49:35.027Z,7.45
2023-02-25T02:52:23.027Z,7.38
2023-02-25T02:55:13.608Z,7.63
2023-02-25T02:57:50.083Z,7.50
2023-02-25T03:00:40.952Z,8.40
2023-02-25T03:03:17.092Z,6.55
2023-02-25T03:05:49.471Z,6.55
2023-02-25T03:08:29.733Z,7.70
2023-02-25T03:10:59.190Z,6.47
2023-02-25T03:13:29.348Z,6.32
2023-02-25T03:16:00.408Z,7.40
2023-02-25T03:18:39.214Z,7.30
2023-02-25T03:21:30.225Z,7.47
2023-02-25T03:24:09.272Z,6.80
2023-02-25T03:26:47.327Z,7.03
2023-02-25T03:29:24.093Z,7.72
2023-02-25T03:31:55.077Z,6.07
2023-02-25T03:34:32.436Z,7.15
2023-02-25T03:37:16.342Z,6.75
2023-02-25T03:42:27.703Z,6.40
2023-02-25T03:44:59.469Z,7.22
2023-02-25T03:47:34.825Z,6.65
2023-02-25T03:50:16.386Z,6.78
2023-02-25T03:52:48.473Z,6.93
2023-02-25T03:55:45.794Z,7.05
2023-02-25T03:58:19.221Z,7.00
2023-02-25T04:00:56.959Z,6.72
2023-02-25T04:03:32.156Z,6.70
2023-02-25T04:06:07.086Z,6.90
2023-02-25T04:08:38.429Z,6.50
2023-02-25T04:11:10.515Z,6.53
2023-02-25T04:13:44.073Z,7.10
2023-02-25T04:16:11.856Z,7.33
2023-02-25T04:18:42.717Z,7.75
2023-02-25T04:21:39.402Z,7.18
2023-02-25T04:24:18.285Z,6.60
2023-02-25T04:26:45.506Z,6.03
2023-02-25T04:29:18.589Z,6.28
2023-02-25T04:31:46.349Z,6.40
2023-02-25T04:34:13.725Z,6.78
2023-02-25T04:36:48.683Z,6.45
2023-02-25T04:39:20.921Z,6.03
2023-02-25T04:41:54.582Z,5.80
2023-02-25T04:44:29.724Z,6.47
2023-02-25T04:46:59.813Z,6.35
2023-02-25T04:49:30.170Z,6.88
2023-02-25T04:52:04.731Z,7.72
2023-02-25T04:54:36.722Z,6.55
2023-02-25T04:57:04.150Z,6.75
2023-02-25T04:59:31.509Z,6.72
2023-02-25T05:02:07.875Z,6.20
2023-02-25T05:04:39.755Z,6.30
2023-02-25T05:07:14.928Z,6.30
2023-02-25T05:09:42.573Z,6.72
2023-02-25T05:12:17.799Z,7.20
2023-02-25T05:14:51.509Z,7.20
2023-02-25T05:17:32.237Z,6.75
2023-02-25T05:20:15.045Z,7.07
2023-02-25T05:22:42.780Z,7.85
2023-02-25T05:25:15.317Z,7.43
2023-02-25T05:28:05.968Z,8.00
2023-02-25T05:30:43.493Z,7.05
2023-02-25T05:33:18.036Z,7.18
2023-02-25T05:35:53.788Z,8.05
2023-02-25T05:38:22.067Z,7.35
2023-02-25T05:40:49.881Z,7.38
2023-02-25T05:43:21.581Z,7.38
2023-02-25T05:46:02.737Z,7.45
2023-02-25T05:48:41.602Z,6.88
2023-02-25T05:51:22.804Z,7.07
2023-02-25T05:54:02.657Z,7.15
2023-02-25T05:56:32.301Z,7.38
2023-02-25T05:59:06.170Z,6.93
2023-02-25T06:01:41.377Z,8.07
2023-02-25T06:04:12.812Z,7.00
2023-02-25T06:06:57.400Z,7.55
2023-02-25T06:09:27.586Z,7.25
2023-02-25T06:12:02.486Z,7.72
2023-02-25T06:14:41.820Z,6.75
2023-02-25T06:17:18.155Z,7.35
2023-02-25T06:19:55.017Z,7.63
2023-02-25T06:22:37.272Z,8.32
2023-02-25T06:25:16.673Z,8.85
2023-02-25T06:27:59.677Z,8.10
2023-02-25T06:30:30.865Z,7.57
2023-02-25T06:33:07.791Z,8.45
2023-02-25T06:35:43.921Z,7.43
2023-02-25T06:38:20.436Z,7.70
2023-02-25T06:40:58.417Z,7.72
2023-02-25T06:43:35.298Z,8.68
2023-02-25T06:46:30.816Z,8.15
2023-02-25T06:49:01.763Z,10.02
2023-02-25T06:51:29.406Z,7.57
2023-02-25T06:53:58.745Z,7.18
2023-02-25T06:56:36.796Z,6.70
2023-02-25T06:59:14.402Z,8.02
2023-02-25T07:02:03.739Z,7.47
2023-02-25T07:05:06.176Z,6.53
2023-02-25T07:07:42.023Z,6.03
2023-02-25T07:10:22.910Z,6.53
2023-02-25T07:13:01.510Z,6.60
2023-02-25T07:15:39.884Z,5.78
2023-02-25T07:18:16.915Z,6.40
2023-02-25T07:21:18.908Z,6.47
2023-02-25T07:23:54.942Z,6.03
2023-02-25T07:26:33.684Z,6.10
2023-02-25T07:29:09.112Z,5.75
2023-02-25T07:31:48.895Z,6.13
2023-02-25T07:34:27.761Z,6.03
2023-02-25T07:37:10.878Z,6.18
2023-02-25T07:39:49.276Z,6.63
2023-02-25T07:42:20.703Z,6.88
2023-02-25T07:44:52.917Z,6.80
2023-02-25T07:47:32.024Z,6.63
2023-02-25T07:50:02.060Z,7.65
2023-02-25T07:52:46.439Z,7.60
2023-02-25T07:55:25.543Z,7.43
2023-02-25T07:57:59.412Z,7.57
2023-02-25T08:00:56.034Z,7.75
2023-02-25T08:03:26.616Z,7.75
2023-02-25T08:05:58.057Z,6.50
2023-02-25T08:08:28.629Z,7.85
2023-02-25T08:11:09.414Z,8.02
2023-02-25T08:13:44.099Z,7.72
2023-02-25T08:16:14.652Z,7.45
2023-02-25T08:18:47.951Z,7.65
2023-02-25T08:21:26.008Z,7.47
2023-02-25T08:23:54.460Z,8.10
2023-02-25T08:26:25.736Z,8.30
2023-02-25T08:29:05.518Z,8.30
2023-02-25T08:31:34.072Z,6.72
2023-02-25T08:34:13.542Z,6.78
2023-02-25T08:36:45.509Z,6.70
2023-02-25T08:39:16.963Z,6.43
2023-02-25T08:41:49.751Z,5.80
2023-02-25T08:44:23.962Z,8.20
2023-02-25T08:47:01.901Z,7.57
2023-02-25T08:49:45.582Z,6.60
2023-02-25T08:52:22.026Z,5.72
2023-02-25T08:54:54.238Z,6.72
2023-02-25T08:57:26.703Z,6.50
2023-02-25T09:00:05.579Z,6.18
2023-02-25T09:02:41.955Z,6.13
2023-02-25T09:05:20.809Z,5.72
2023-02-25T09:07:58.109Z,6.13
2023-02-25T09:10:48.219Z,6.93
2023-02-25T09:13:23.264Z,6.90
2023-02-25T09:16:03.045Z,6.25
2023-02-25T09:18:33.933Z,6.88
2023-02-25T09:21:04.600Z,7.32
2023-02-25T09:23:43.957Z,7.13
2023-02-25T09:26:23.893Z,7.75
2023-02-25T09:29:06.972Z,6.80
2023-02-25T09:31:43.560Z,6.30
2023-02-25T09:34:15.572Z,6.30
2023-02-25T09:37:07.511Z,6.18
2023-02-25T09:39:34.855Z,7.45
2023-02-25T09:42:18.390Z,9.05
2023-02-25T09:44:47.504Z,8.75
2023-02-25T09:47:32.611Z,6.95
2023-02-25T09:50:19.799Z,7.05
2023-02-25T09:53:10.297Z,7.07
2023-02-25T09:55:42.939Z,6.93
2023-02-25T09:58:26.529Z,7.38
2023-02-25T10:01:30.171Z,6.45
2023-02-25T10:04:13.373Z,8.07
2023-02-25T10:06:56.694Z,6.90
2023-02-25T10:09:37.796Z,8.00
2023-02-25T10:12:42.998Z,11.43
2023-02-25T10:15:29.058Z,6.83
2023-02-25T10:18:36.355Z,7.47
2023-02-25T10:27:51.064Z,6.43
2023-02-25T10:30:33.342Z,6.90
2023-02-25T10:33:20.980Z,7.22
2023-02-25T10:36:13.921Z,6.22
2023-02-25T10:39:04.485Z,7.13
2023-02-25T10:41:49.496Z,5.95
2023-02-25T10:44:20.405Z,8.20
2023-02-25T10:47:10.788Z,6.38
2023-02-25T10:49:40.753Z,6.38
2023-02-25T10:52:21.347Z,6.85
2023-02-25T10:54:52.129Z,7.13
2023-02-25T10:57:33.066Z,7.25
2023-02-25T11:00:06.736Z,10.35
2023-02-25T11:05:41.328Z,9.38
2023-02-25T11:08:31.856Z,7.03
2023-02-25T11:11:25.687Z,7.00
2023-02-25T11:14:16.992Z,7.88
2023-02-25T11:16:46.096Z,11.82
2023-02-25T11:19:32.008Z,7.72
2023-02-25T11:22:06.765Z,6.78
2023-02-25T11:24:37.852Z,6.68
2023-02-25T11:27:08.442Z,5.80
2023-02-25T11:29:40.049Z,6.47
2023-02-25T11:32:22.902Z,6.05
2023-02-25T11:35:05.878Z,6.25
2023-02-25T11:37:51.039Z,5.43
2023-02-25T11:40:30.884Z,5.78
2023-02-25T11:43:21.178Z,6.03
2023-02-25T11:45:53.606Z,6.28
2023-02-25T11:48:48.167Z,6.35
2023-02-25T11:51:59.321Z,6.40
2023-02-25T11:54:39.999Z,5.68
2023-02-25T11:57:20.330Z,5.95
2023-02-25T12:00:16.845Z,6.32
2023-02-25T12:02:49.488Z,6.95
2023-02-25T12:06:03.700Z,6.70
2023-02-25T12:09:14.273Z,6.70
2023-02-25T12:12:20.332Z,6.15
2023-02-25T12:15:13.228Z,7.32
2023-02-25T12:17:58.479Z,7.00
2023-02-25T12:20:37.703Z,6.25
2023-02-25T12:23:36.748Z,6.88
2023-02-25T12:26:49.267Z,6.60
2023-02-25T12:29:56.814Z,5.55
2023-02-25T12:33:22.655Z,6.32
2023-02-25T12:36:04.890Z,6.85
2023-02-25T12:39:11.239Z,6.60
2023-02-25T12:42:21.516Z,7.65
2023-02-25T12:45:24.829Z,6.03
2023-02-25T12:48:31.468Z,6.18
2023-02-25T12:51:27.678Z,6.50
2023-02-25T12:54:09.161Z,7.40
2023-02-25T12:57:03.509Z,6.72
2023-02-25T12:59:59.435Z,6.93
2023-02-25T13:02:47.768Z,7.20
2023-02-25T13:05:46.050Z,6.35
2023-02-25T13:08:40.703Z,7.72
2023-02-25T13:12:10.100Z,7.20
2023-02-25T13:15:05.218Z,7.93
2023-02-25T13:17:57.909Z,9.25
2023-02-25T13:20:49.398Z,8.13
2023-02-25T13:23:51.091Z,8.50
2023-02-25T13:26:51.741Z,8.00
2023-02-25T13:29:47.068Z,8.38
2023-02-25T13:32:29.950Z,8.85
2023-02-25T13:35:22.030Z,10.48
2023-02-25T13:38:30.149Z,9.32
2023-02-25T13:41:21.724Z,11.55
2023-02-25T13:44:08.845Z,11.07
2023-02-25T13:47:07.710Z,8.90
2023-02-25T13:50:15.161Z,8.05
2023-02-25T13:53:19.972Z,7.65
2023-02-25T13:56:11.288Z,7.90
2023-02-25T13:58:49.585Z,7.53
2023-02-25T14:01:33.558Z,7.28
2023-02-25T14:04:24.709Z,6.70
2023-02-25T14:07:30.384Z,8.05
2023-02-25T14:10:35.061Z,6.28
2023-02-25T14:13:21.567Z,6.20
2023-02-25T14:16:04.407Z,6.07
2023-02-25T14:18:50.920Z,4.70
2023-02-25T14:21:48.621Z,7.88
2023-02-25T14:24:37.085Z,5.88
2023-02-25T14:27:26.012Z,5.47
2023-02-25T14:30:53.838Z,4.68
2023-02-25T14:33:50.205Z,4.60
2023-02-25T14:36:33.126Z,4.07
2023-02-25T14:39:18.228Z,4.40
2023-02-25T14:42:01.655Z,12.57
2023-02-25T14:44:51.071Z,6.07
2023-02-25T14:47:41.258Z,4.63
2023-02-25T14:50:28.045Z,4.93
2023-02-25T14:53:14.061Z,5.00
2023-02-25T14:56:08.860Z,4.45
2023-02-25T14:58:39.209Z,5.15
2023-02-25T15:01:45.025Z,4.20
2023-02-25T15:04:31.107Z,2.83
2023-02-25T15:07:37.739Z,3.58
2023-02-25T15:10:28.007Z,3.08
2023-02-25T15:13:31.227Z,4.05
2023-02-25T15:16:52.485Z,3.20
2023-02-25T15:19:45.690Z,4.40
2023-02-25T15:22:25.330Z,3.30
2023-02-25T15:25:32.092Z,5.57
2023-02-25T15:28:02.870Z,4.00
2023-02-25T15:31:07.074Z,4.05
2023-02-25T15:33:58.759Z,3.20
2023-02-25T15:36:49.529Z,2.95
2023-02-25T15:39:42.000Z,3.17
2023-02-25T15:42:25.294Z,3.33
2023-02-25T15:45:44.982Z,3.97
2023-02-25T15:48:17.542Z,5.50
2023-02-25T15:50:47.421Z,3.40
2023-02-25T15:53:30.314Z,2.95
2023-02-25T15:56:12.114Z,3.38
2023-02-25T15:59:00.365Z,3.65
2023-02-25T16:01:39.935Z,3.40
2023-02-25T16:04:43.354Z,3.75
2023-02-25T16:07:17.519Z,3.22
2023-02-25T16:09:57.533Z,3.85
2023-02-25T16:12:25.841Z,4.15
2023-02-25T16:14:55.617Z,4.32
2023-02-25T16:17:41.729Z,4.45
2023-02-25T16:20:17.891Z,3.90
2023-02-25T16:22:48.559Z,3.83
2023-02-25T16:25:20.093Z,4.05
2023-02-25T16:28:18.725Z,5.43
2023-02-25T16:31:07.360Z,4.78
2023-02-25T16:33:49.504Z,4.60
2023-02-25T16:36:28.985Z,5.47
2023-02-25T16:39:07.879Z,5.38
2023-02-25T16:41:38.464Z,5.88
2023-02-25T16:44:09.347Z,4.75
2023-02-25T16:46:39.716Z,5.10
2023-02-25T16:49:30.283Z,5.95
2023-02-25T16:51:58.577Z,4.95
2023-02-25T16:54:38.436Z,4.03
2023-02-25T16:57:09.942Z,4.72
2023-02-25T16:59:40.700Z,5.72
2023-02-25T17:02:17.278Z,5.05
2023-02-25T17:04:50.796Z,6.10
2023-02-25T17:10:07.336Z,4.93
2023-02-25T17:12:45.997Z,4.90
2023-02-25T17:15:28.942Z,5.32
2023-02-25T17:18:17.083Z,11.65
2023-02-25T17:20:53.123Z,4.78
2023-02-25T17:23:23.573Z,5.40
2023-02-25T17:25:53.013Z,4.63
2023-02-25T17:28:31.109Z,4.97
2023-02-25T17:31:20.962Z,5.22
2023-02-25T17:33:57.738Z,5.47
2023-02-25T17:36:31.768Z,4.43
2023-02-25T17:39:08.010Z,3.92
2023-02-25T17:42:00.886Z,5.22
2023-02-25T17:44:44.311Z,4.57
2023-02-25T17:47:23.143Z,4.30
2023-02-25T17:49:54.118Z,4.60
2023-02-25T17:52:30.931Z,4.85
2023-02-25T17:55:06.171Z,4.85
2023-02-25T17:57:34.694Z,4.40
2023-02-25T18:00:40.058Z,4.70
2023-02-25T18:03:13.919Z,4.38
2023-02-25T18:06:00.136Z,4.47
2023-02-25T18:09:08.268Z,3.78
2023-02-25T18:11:40.091Z,3.60
2023-02-25T18:14:38.564Z,4.65
2023-02-25T18:17:27.566Z,3.65
2023-02-25T18:20:03.947Z,3.90
2023-02-25T18:22:46.222Z,3.97
2023-02-25T18:25:45.706Z,3.20
2023-02-25T18:28:24.771Z,3.50
2023-02-25T18:31:03.305Z,3.78
2023-02-25T18:33:34.412Z,3.83
2023-02-25T18:36:08.357Z,3.95
2023-02-25T18:38:45.452Z,4.20
2023-02-25T18:41:24.386Z,4.70
2023-02-25T18:43:55.236Z,4.40
2023-02-25T18:46:23.338Z,4.50
2023-02-25T18:48:51.665Z,4.72
2023-02-25T18:51:19.634Z,4.78
2023-02-25T18:53:50.493Z,3.90
2023-02-25T18:56:18.550Z,4.32
2023-02-25T18:58:46.089Z,4.40
2023-02-25T19:01:26.780Z,4.32
2023-02-25T19:04:00.738Z,4.57
2023-02-25T19:06:36.826Z,4.07
2023-02-25T19:11:41.359Z,4.22
2023-02-25T19:14:09.347Z,4.45
2023-02-25T19:16:37.354Z,4.22
2023-02-25T19:19:05.616Z,4.00
2023-02-25T19:21:44.585Z,4.70
2023-02-25T19:24:17.026Z,4.47
2023-02-25T19:26:46.630Z,4.88
2023-02-25T19:29:15.036Z,4.38
2023-02-25T19:31:47.070Z,4.53
2023-02-25T19:34:27.629Z,3.30
2023-02-25T19:36:57.608Z,4.05
2023-02-25T19:39:25.074Z,4.38
2023-02-25T19:42:03.526Z,4.43
2023-02-25T19:44:36.962Z,4.40
2023-02-25T19:47:12.401Z,4.20
2023-02-25T19:49:43.098Z,5.28
2023-02-25T19:52:15.845Z,4.45
2023-02-25T19:54:49.121Z,5.10
2023-02-25T19:57:33.228Z,5.38
2023-02-25T20:00:15.294Z,4.43
2023-02-25T20:02:45.728Z,4.90
2023-02-25T20:05:31.523Z,5.43
2023-02-25T20:08:01.443Z,5.15
2023-02-25T20:10:43.649Z,5.32
2023-02-25T20:13:12.971Z,5.32
2023-02-25T20:15:43.607Z,5.60
2023-02-25T20:18:20.965Z,5.40
2023-02-25T20:20:50.685Z,4.97
2023-02-25T20:23:25.815Z,5.65
2023-02-25T20:26:05.935Z,5.65
2023-02-25T20:28:48.780Z,6.15
2023-02-25T20:31:29.930Z,5.32
2023-02-25T20:34:05.353Z,5.82
2023-02-25T20:36:54.535Z,5.60
2023-02-25T20:39:41.702Z,5.13
2023-02-25T20:42:21.100Z,6.00
2023-02-25T20:44:57.618Z,6.32
2023-02-25T20:47:43.096Z,4.68
2023-02-25T20:50:18.605Z,5.93
2023-02-25T20:52:48.924Z,5.43
2023-02-25T20:55:19.789Z,5.38
2023-02-25T20:57:48.137Z,6.07
2023-02-25T21:00:23.772Z,6.55
2023-02-25T21:02:57.384Z,6.75
2023-02-25T21:05:28.327Z,7.32
2023-02-25T21:08:02.489Z,7.03
2023-02-25T21:10:35.232Z,7.60
2023-02-25T21:13:12.719Z,6.70
2023-02-25T21:15:48.937Z,7.00
2023-02-25T21:18:24.042Z,6.95
2023-02-25T21:21:13.825Z,7.97
2023-02-25T21:23:49.740Z,7.25
2023-02-25T21:26:20.083Z,7.03
2023-02-25T21:29:02.806Z,7.80
2023-02-25T21:31:33.217Z,7.97
2023-02-25T21:34:05.073Z,7.88
2023-02-25T21:36:35.628Z,8.18
2023-02-25T21:39:17.418Z,7.80
2023-02-25T21:41:47.653Z,9.45
2023-02-25T21:44:21.153Z,8.15
2023-02-25T21:46:57.841Z,8.45
2023-02-25T21:49:35.619Z,8.25
2023-02-25T21:52:08.006Z,9.27
2023-02-25T21:54:47.319Z,9.30
2023-02-25T21:57:40.337Z,9.30
2023-02-25T22:00:11.337Z,8.45
2023-02-25T22:02:50.656Z,8.98
2023-02-25T22:05:27.485Z,8.35
2023-02-25T22:07:58.781Z,9.23
2023-02-25T22:10:37.810Z,9.07
2023-02-25T22:13:08.880Z,9.40
2023-02-25T22:15:50.095Z,9.75
2023-02-25T22:18:17.789Z,8.80
2023-02-25T22:20:51.790Z,9.18
2023-02-25T22:23:22.248Z,8.75
2023-02-25T22:26:09.541Z,10.02
2023-02-25T22:28:49.293Z,9.05
2023-02-25T22:31:31.736Z,8.23
2023-02-25T22:33:59.291Z,9.60
2023-02-25T22:36:39.667Z,8.57
2023-02-25T22:39:13.833Z,8.10
2023-02-25T22:41:54.229Z,8.88
2023-02-25T22:44:33.382Z,9.15
2023-02-25T22:47:08.508Z,8.80
2023-02-25T22:49:36.003Z,8.93
2023-02-25T22:52:12.695Z,8.52
2023-02-25T22:54:49.437Z,8.02
2023-02-25T23:00:25.482Z,9.57
2023-02-25T23:03:01.512Z,9.07
2023-02-25T23:05:32.353Z,8.85
2023-02-25T23:08:06.218Z,8.93
2023-02-25T23:10:36.938Z,9.95
2023-02-25T23:13:08.603Z,8.40
2023-02-25T23:15:41.596Z,8.48
2023-02-25T23:18:24.143Z,8.02
2023-02-25T23:20:56.939Z,7.90
2023-02-25T23:23:41.914Z,8.20
2023-02-25T23:26:15.088Z,7.90
2023-02-25T23:28:46.216Z,8.00
2023-02-25T23:31:24.694Z,7.95
2023-02-25T23:34:03.805Z,7.43
2023-02-25T23:36:34.191Z,7.50
2023-02-25T23:39:06.482Z,7.20
2023-02-25T23:44:09.723Z,7.03
2023-02-25T23:46:38.255Z,6.53
2023-02-25T23:49:13.226Z,6.15
2023-02-25T23:51:49.608Z,6.47
2023-02-25T23:54:22.816Z,5.35
2023-02-25T23:56:58.107Z,5.45
2023-02-25T23:59:31.252Z,4.68
